WIA543 TNCM-TNCE
Flight info
| Callsign | WIA543 |
|---|---|
| Flight time | 0h 21m |
| Altitude | 2000 |
| Route | DCT |
| Aircraft | DHC6/L-SDFGR/C |
Departure
| Time | 2026-05-04 18:42 |
|---|---|
| Airport | Princess Juliana International Airport (TNCM) |
Arrival
| Time | 2026-05-04 19:03 |
|---|---|
| Airport | F. D. Roosevelt Airport (TNCE) |
| Time | Latitude | Longitude | Altitude | Speed | Heading |
|---|---|---|---|---|---|
| 2026-05-04 18:25 | 18.04206 | -63.11038 | 16 ft | 0 kts | 352° |
| 2026-05-04 18:36 | 18.04209 | -63.11035 | 16 ft | 1 kts | 88° |
| 2026-05-04 18:36 | 18.04187 | -63.11034 | 16 ft | 6 kts | 192° |
| 2026-05-04 18:37 | 18.04159 | -63.11095 | 16 ft | 13 kts | 262° |
| 2026-05-04 18:37 | 18.04145 | -63.11151 | 16 ft | 5 kts | 227° |
| 2026-05-04 18:37 | 18.04136 | -63.11159 | 16 ft | 0 kts | 210° |
| 2026-05-04 18:37 | 18.04134 | -63.11160 | 16 ft | 0 kts | 205° |
| 2026-05-04 18:41 | 18.04123 | -63.11161 | 16 ft | 4 kts | 172° |
| 2026-05-04 18:41 | 18.04083 | -63.11153 | 17 ft | 7 kts | 166° |
| 2026-05-04 18:41 | 18.04060 | -63.11122 | 17 ft | 5 kts | 86° |
| 2026-05-04 18:41 | 18.04066 | -63.11078 | 17 ft | 32 kts | 83° |
| 2026-05-04 18:42 | 18.04137 | -63.10575 | 170 ft | 90 kts | 85° |
| 2026-05-04 18:42 | 18.04203 | -63.09930 | 688 ft | 90 kts | 98° |
| 2026-05-04 18:42 | 18.03749 | -63.09512 | 956 ft | 106 kts | 171° |
| 2026-05-04 18:42 | 18.03190 | -63.10075 | 1282 ft | 126 kts | 248° |
| 2026-05-04 18:43 | 18.03037 | -63.10962 | 1569 ft | 121 kts | 255° |
| 2026-05-04 18:43 | 18.02873 | -63.11849 | 1498 ft | 127 kts | 253° |
| 2026-05-04 18:43 | 18.02676 | -63.12752 | 1486 ft | 130 kts | 251° |
| 2026-05-04 18:43 | 18.02435 | -63.13720 | 1503 ft | 141 kts | 248° |
| 2026-05-04 18:44 | 18.02168 | -63.14719 | 1515 ft | 144 kts | 249° |
| 2026-05-04 18:44 | 18.01977 | -63.15394 | 1521 ft | 146 kts | 248° |
| 2026-05-04 18:44 | 18.01207 | -63.16414 | 1529 ft | 131 kts | 189° |
| 2026-05-04 18:44 | 18.00369 | -63.16326 | 1540 ft | 117 kts | 146° |
| 2026-05-04 18:45 | 17.99633 | -63.15971 | 1608 ft | 116 kts | 153° |
| 2026-05-04 18:45 | 17.98859 | -63.15730 | 1754 ft | 118 kts | 163° |
| 2026-05-04 18:45 | 17.98044 | -63.15617 | 1848 ft | 119 kts | 165° |
| 2026-05-04 18:45 | 17.97256 | -63.15460 | 1916 ft | 113 kts | 161° |
| 2026-05-04 18:46 | 17.96466 | -63.15267 | 1776 ft | 121 kts | 159° |
| 2026-05-04 18:46 | 17.95628 | -63.15028 | 1659 ft | 125 kts | 158° |
| 2026-05-04 18:46 | 17.94806 | -63.14781 | 1712 ft | 121 kts | 157° |
| 2026-05-04 18:46 | 17.94017 | -63.14489 | 1696 ft | 122 kts | 154° |
| 2026-05-04 18:47 | 17.93231 | -63.14170 | 1573 ft | 122 kts | 152° |
| 2026-05-04 18:47 | 17.92456 | -63.13797 | 1420 ft | 121 kts | 149° |
| 2026-05-04 18:47 | 17.91724 | -63.13406 | 1357 ft | 116 kts | 147° |
| 2026-05-04 18:47 | 17.91024 | -63.13016 | 1350 ft | 110 kts | 148° |
| 2026-05-04 18:48 | 17.90366 | -63.12630 | 1368 ft | 108 kts | 148° |
| 2026-05-04 18:48 | 17.89726 | -63.12259 | 1437 ft | 103 kts | 148° |
| 2026-05-04 18:48 | 17.89103 | -63.11914 | 1521 ft | 99 kts | 148° |
| 2026-05-04 18:48 | 17.88483 | -63.11598 | 1558 ft | 99 kts | 150° |
| 2026-05-04 18:49 | 17.87854 | -63.11293 | 1558 ft | 101 kts | 149° |
| 2026-05-04 18:49 | 17.87212 | -63.10982 | 1570 ft | 102 kts | 155° |
| 2026-05-04 18:49 | 17.86513 | -63.10781 | 1568 ft | 110 kts | 161° |
| 2026-05-04 18:49 | 17.85753 | -63.10577 | 1625 ft | 114 kts | 162° |
| 2026-05-04 18:50 | 17.84961 | -63.10362 | 1615 ft | 119 kts | 162° |
| 2026-05-04 18:50 | 17.84158 | -63.10137 | 1630 ft | 121 kts | 159° |
| 2026-05-04 18:50 | 17.83360 | -63.09855 | 1680 ft | 119 kts | 156° |
| 2026-05-04 18:50 | 17.82565 | -63.09599 | 1743 ft | 118 kts | 158° |
| 2026-05-04 18:51 | 17.81742 | -63.09429 | 1701 ft | 123 kts | 160° |
| 2026-05-04 18:51 | 17.80915 | -63.09191 | 1760 ft | 123 kts | 159° |
| 2026-05-04 18:51 | 17.80097 | -63.08938 | 1841 ft | 123 kts | 159° |
| 2026-05-04 18:51 | 17.79277 | -63.08654 | 1845 ft | 125 kts | 157° |
| 2026-05-04 18:52 | 17.78441 | -63.08348 | 1778 ft | 129 kts | 156° |
| 2026-05-04 18:52 | 17.77678 | -63.08060 | 1770 ft | 129 kts | 156° |
| 2026-05-04 18:52 | 17.76838 | -63.07741 | 1802 ft | 125 kts | 156° |
| 2026-05-04 18:52 | 17.76040 | -63.07445 | 1858 ft | 121 kts | 156° |
| 2026-05-04 18:53 | 17.75241 | -63.07170 | 1913 ft | 122 kts | 157° |
| 2026-05-04 18:53 | 17.74417 | -63.06881 | 1954 ft | 128 kts | 156° |
| 2026-05-04 18:53 | 17.73548 | -63.06578 | 1940 ft | 134 kts | 158° |
| 2026-05-04 18:53 | 17.72661 | -63.06311 | 2052 ft | 132 kts | 160° |
| 2026-05-04 18:54 | 17.71780 | -63.06050 | 2126 ft | 134 kts | 160° |
| 2026-05-04 18:54 | 17.70867 | -63.05776 | 2194 ft | 137 kts | 159° |
| 2026-05-04 18:54 | 17.69931 | -63.05498 | 2234 ft | 143 kts | 161° |
| 2026-05-04 18:54 | 17.68960 | -63.05215 | 2280 ft | 146 kts | 160° |
| 2026-05-04 18:55 | 17.67995 | -63.04913 | 2395 ft | 143 kts | 159° |
| 2026-05-04 18:55 | 17.66061 | -63.04280 | 2069 ft | 145 kts | 159° |
| 2026-05-04 18:55 | 17.65096 | -63.03985 | 1816 ft | 144 kts | 161° |
| 2026-05-04 18:56 | 17.64132 | -63.03722 | 1579 ft | 141 kts | 161° |
| 2026-05-04 18:56 | 17.63193 | -63.03472 | 1444 ft | 137 kts | 160° |
| 2026-05-04 18:56 | 17.62291 | -63.03221 | 1385 ft | 131 kts | 161° |
| 2026-05-04 18:56 | 17.61413 | -63.02972 | 1304 ft | 131 kts | 161° |
| 2026-05-04 18:57 | 17.60540 | -63.02687 | 1212 ft | 131 kts | 158° |
| 2026-05-04 18:57 | 17.59661 | -63.02429 | 1193 ft | 130 kts | 162° |
| 2026-05-04 18:57 | 17.58778 | -63.02228 | 1203 ft | 130 kts | 163° |
| 2026-05-04 18:57 | 17.57900 | -63.02036 | 1168 ft | 130 kts | 162° |
| 2026-05-04 18:58 | 17.57048 | -63.01802 | 1143 ft | 122 kts | 161° |
| 2026-05-04 18:58 | 17.56196 | -63.01555 | 1112 ft | 129 kts | 160° |
| 2026-05-04 18:58 | 17.55323 | -63.01289 | 1077 ft | 131 kts | 158° |
| 2026-05-04 18:58 | 17.54452 | -63.01098 | 1074 ft | 127 kts | 174° |
| 2026-05-04 18:59 | 17.53551 | -63.01104 | 1075 ft | 130 kts | 174° |
| 2026-05-04 18:59 | 17.52662 | -63.01100 | 1126 ft | 126 kts | 171° |
| 2026-05-04 18:59 | 17.51779 | -63.01073 | 1161 ft | 125 kts | 170° |
| 2026-05-04 18:59 | 17.50912 | -63.00974 | 1180 ft | 127 kts | 166° |
| 2026-05-04 19:00 | 17.50062 | -63.00839 | 1233 ft | 107 kts | 166° |
| 2026-05-04 19:00 | 17.49427 | -63.00731 | 928 ft | 88 kts | 157° |
| 2026-05-04 19:00 | 17.48908 | -63.00515 | 707 ft | 75 kts | 146° |
| 2026-05-04 19:00 | 17.48423 | -63.00201 | 708 ft | 72 kts | 139° |
| 2026-05-04 19:01 | 17.48066 | -62.99781 | 676 ft | 88 kts | 128° |
| 2026-05-04 19:01 | 17.47565 | -62.99466 | 910 ft | 102 kts | 186° |
| 2026-05-04 19:01 | 17.47310 | -63.00180 | 1041 ft | 122 kts | 298° |
| 2026-05-04 19:01 | 17.47912 | -63.00291 | 721 ft | 86 kts | 54° |
| 2026-05-04 19:02 | 17.48194 | -62.99866 | 550 ft | 72 kts | 69° |
| 2026-05-04 19:02 | 17.48453 | -62.99470 | 432 ft | 68 kts | 66° |
| 2026-05-04 19:02 | 17.48736 | -62.99110 | 413 ft | 61 kts | 60° |
| 2026-05-04 19:02 | 17.49013 | -62.98751 | 225 ft | 65 kts | 56° |
| 2026-05-04 19:03 | 17.49279 | -62.98418 | 134 ft | 53 kts | 60° |
| 2026-05-04 19:03 | 17.49400 | -62.98259 | 128 ft | 13 kts | 59° |
| 2026-05-04 19:03 | 17.49400 | -62.98244 | 128 ft | 2 kts | 122° |
| 2026-05-04 19:03 | 17.49386 | -62.98228 | 126 ft | 4 kts | 141° |
| 2026-05-04 19:04 | 17.49361 | -62.98206 | 128 ft | 6 kts | 132° |
| 2026-05-04 19:04 | 17.49352 | -62.98157 | 127 ft | 8 kts | 94° |
| 2026-05-04 19:04 | 17.49368 | -62.98122 | 124 ft | 4 kts | 341° |
| 2026-05-04 19:04 | 17.49377 | -62.98130 | 125 ft | 0 kts | 315° |